sensor_id;sensor_type;location;lat;lon;timestamp;P1;durP1;ratioP1;P2;durP2;ratioP2
63902;SDS011;50072;50.678;13.938;2023-03-14T00:02:06;16.52;;;8.65;;
63902;SDS011;50072;50.678;13.938;2023-03-14T00:04:42;17.02;;;8.77;;
63902;SDS011;50072;50.678;13.938;2023-03-14T00:07:11;16.98;;;8.68;;
63902;SDS011;50072;50.678;13.938;2023-03-14T00:09:37;16.05;;;8.82;;
63902;SDS011;50072;50.678;13.938;2023-03-14T00:12:03;22.13;;;9.85;;
63902;SDS011;50072;50.678;13.938;2023-03-14T00:14:30;20.80;;;10.13;;
63902;SDS011;50072;50.678;13.938;2023-03-14T00:17:02;23.02;;;10.77;;
63902;SDS011;50072;50.678;13.938;2023-03-14T00:19:29;23.50;;;12.05;;
63902;SDS011;50072;50.678;13.938;2023-03-14T00:22:00;23.17;;;10.85;;
63902;SDS011;50072;50.678;13.938;2023-03-14T00:24:30;21.08;;;10.00;;
63902;SDS011;50072;50.678;13.938;2023-03-14T00:27:00;20.92;;;9.98;;
63902;SDS011;50072;50.678;13.938;2023-03-14T00:29:26;19.67;;;9.43;;
63902;SDS011;50072;50.678;13.938;2023-03-14T00:32:00;18.40;;;9.10;;
63902;SDS011;50072;50.678;13.938;2023-03-14T00:34:32;19.63;;;9.30;;
63902;SDS011;50072;50.678;13.938;2023-03-14T00:37:00;52.67;;;20.17;;
63902;SDS011;50072;50.678;13.938;2023-03-14T00:39:30;28.25;;;13.40;;
63902;SDS011;50072;50.678;13.938;2023-03-14T00:42:02;26.02;;;12.02;;
63902;SDS011;50072;50.678;13.938;2023-03-14T00:44:30;23.15;;;9.95;;
63902;SDS011;50072;50.678;13.938;2023-03-14T00:49:38;33.90;;;14.93;;
63902;SDS011;50072;50.678;13.938;2023-03-14T00:54:43;27.00;;;12.60;;
63902;SDS011;50072;50.678;13.938;2023-03-14T00:57:12;31.80;;;14.02;;
63902;SDS011;50072;50.678;13.938;2023-03-14T00:59:38;30.58;;;14.73;;
63902;SDS011;50072;50.678;13.938;2023-03-14T01:02:12;24.67;;;12.35;;
63902;SDS011;50072;50.678;13.938;2023-03-14T01:07:14;26.60;;;12.13;;
63902;SDS011;50072;50.678;13.938;2023-03-14T01:12:07;24.83;;;11.73;;
63902;SDS011;50072;50.678;13.938;2023-03-14T01:14:42;23.27;;;12.23;;
63902;SDS011;50072;50.678;13.938;2023-03-14T01:17:13;26.95;;;12.75;;
63902;SDS011;50072;50.678;13.938;2023-03-14T01:19:42;29.30;;;12.48;;
63902;SDS011;50072;50.678;13.938;2023-03-14T01:24:42;23.83;;;11.70;;
63902;SDS011;50072;50.678;13.938;2023-03-14T01:27:12;23.10;;;11.38;;
63902;SDS011;50072;50.678;13.938;2023-03-14T01:29:42;24.60;;;12.03;;
63902;SDS011;50072;50.678;13.938;2023-03-14T01:32:12;21.55;;;12.00;;
63902;SDS011;50072;50.678;13.938;2023-03-14T01:37:15;25.50;;;12.80;;
63902;SDS011;50072;50.678;13.938;2023-03-14T01:39:42;24.80;;;11.90;;
63902;SDS011;50072;50.678;13.938;2023-03-14T01:47:29;24.98;;;12.75;;
63902;SDS011;50072;50.678;13.938;2023-03-14T01:50:04;28.17;;;13.88;;
63902;SDS011;50072;50.678;13.938;2023-03-14T01:52:44;39.50;;;16.45;;
63902;SDS011;50072;50.678;13.938;2023-03-14T01:55:21;28.10;;;13.05;;
63902;SDS011;50072;50.678;13.938;2023-03-14T02:00:28;21.48;;;11.27;;
63902;SDS011;50072;50.678;13.938;2023-03-14T02:03:01;22.35;;;12.00;;
63902;SDS011;50072;50.678;13.938;2023-03-14T02:05:38;20.92;;;10.60;;
63902;SDS011;50072;50.678;13.938;2023-03-14T02:08:19;23.30;;;11.93;;
63902;SDS011;50072;50.678;13.938;2023-03-14T02:10:58;29.15;;;14.07;;
63902;SDS011;50072;50.678;13.938;2023-03-14T02:13:36;29.15;;;14.07;;
63902;SDS011;50072;50.678;13.938;2023-03-14T02:16:14;31.70;;;14.15;;
63902;SDS011;50072;50.678;13.938;2023-03-14T02:18:42;39.55;;;15.90;;
63902;SDS011;50072;50.678;13.938;2023-03-14T02:21:14;53.33;;;16.13;;
63902;SDS011;50072;50.678;13.938;2023-03-14T02:32:43;130.48;;;20.45;;
63902;SDS011;50072;50.678;13.938;2023-03-14T02:35:14;74.22;;;16.08;;
63902;SDS011;50072;50.678;13.938;2023-03-14T02:40:42;62.72;;;17.52;;
63902;SDS011;50072;50.678;13.938;2023-03-14T02:43:09;57.60;;;17.88;;
63902;SDS011;50072;50.678;13.938;2023-03-14T02:45:45;72.75;;;17.42;;
63902;SDS011;50072;50.678;13.938;2023-03-14T02:54:00;72.75;;;18.55;;
63902;SDS011;50072;50.678;13.938;2023-03-14T02:56:32;77.82;;;15.57;;
63902;SDS011;50072;50.678;13.938;2023-03-14T02:59:04;115.78;;;15.90;;
63902;SDS011;50072;50.678;13.938;2023-03-14T03:01:34;109.65;;;14.65;;
63902;SDS011;50072;50.678;13.938;2023-03-14T03:04:00;139.48;;;17.00;;
63902;SDS011;50072;50.678;13.938;2023-03-14T03:06:38;102.32;;;14.70;;
63902;SDS011;50072;50.678;13.938;2023-03-14T03:09:03;156.43;;;15.02;;
63902;SDS011;50072;50.678;13.938;2023-03-14T03:11:31;107.45;;;16.35;;
63902;SDS011;50072;50.678;13.938;2023-03-14T03:14:00;104.43;;;13.85;;
63902;SDS011;50072;50.678;13.938;2023-03-14T03:16:30;119.32;;;15.52;;
63902;SDS011;50072;50.678;13.938;2023-03-14T03:19:12;118.05;;;15.63;;
63902;SDS011;50072;50.678;13.938;2023-03-14T03:24:12;83.57;;;12.98;;
63902;SDS011;50072;50.678;13.938;2023-03-14T03:26:44;85.10;;;13.93;;
63902;SDS011;50072;50.678;13.938;2023-03-14T03:29:12;118.38;;;17.25;;
63902;SDS011;50072;50.678;13.938;2023-03-14T03:31:39;96.70;;;15.93;;
63902;SDS011;50072;50.678;13.938;2023-03-14T03:34:05;112.28;;;15.98;;
63902;SDS011;50072;50.678;13.938;2023-03-14T03:36:38;120.13;;;22.23;;
63902;SDS011;50072;50.678;13.938;2023-03-14T03:39:05;91.35;;;21.40;;
63902;SDS011;50072;50.678;13.938;2023-03-14T03:41:31;124.00;;;30.35;;
63902;SDS011;50072;50.678;13.938;2023-03-14T03:44:03;122.05;;;31.98;;
63902;SDS011;50072;50.678;13.938;2023-03-14T03:46:38;95.40;;;26.63;;
63902;SDS011;50072;50.678;13.938;2023-03-14T03:49:12;96.40;;;20.40;;
63902;SDS011;50072;50.678;13.938;2023-03-14T03:51:42;81.07;;;18.65;;
63902;SDS011;50072;50.678;13.938;2023-03-14T03:54:09;75.82;;;23.00;;
63902;SDS011;50072;50.678;13.938;2023-03-14T03:56:38;63.13;;;22.95;;
63902;SDS011;50072;50.678;13.938;2023-03-14T03:59:12;78.00;;;22.20;;
63902;SDS011;50072;50.678;13.938;2023-03-14T04:01:38;65.15;;;18.17;;
63902;SDS011;50072;50.678;13.938;2023-03-14T04:04:12;71.03;;;16.55;;
63902;SDS011;50072;50.678;13.938;2023-03-14T04:09:08;95.13;;;14.00;;
63902;SDS011;50072;50.678;13.938;2023-03-14T04:11:42;93.13;;;14.38;;
63902;SDS011;50072;50.678;13.938;2023-03-14T04:14:12;72.32;;;15.32;;
63902;SDS011;50072;50.678;13.938;2023-03-14T04:16:41;83.88;;;14.32;;
63902;SDS011;50072;50.678;13.938;2023-03-14T04:19:12;76.97;;;15.13;;
63902;SDS011;50072;50.678;13.938;2023-03-14T04:21:39;104.05;;;14.77;;
63902;SDS011;50072;50.678;13.938;2023-03-14T04:24:10;105.27;;;13.47;;
63902;SDS011;50072;50.678;13.938;2023-03-14T04:26:36;80.03;;;13.18;;
63902;SDS011;50072;50.678;13.938;2023-03-14T04:29:04;76.32;;;13.32;;
63902;SDS011;50072;50.678;13.938;2023-03-14T04:31:30;41.03;;;11.77;;
63902;SDS011;50072;50.678;13.938;2023-03-14T04:33:56;39.35;;;11.65;;
63902;SDS011;50072;50.678;13.938;2023-03-14T04:36:23;33.47;;;11.75;;
63902;SDS011;50072;50.678;13.938;2023-03-14T04:38:49;28.17;;;11.68;;
63902;SDS011;50072;50.678;13.938;2023-03-14T04:41:17;24.25;;;11.30;;
63902;SDS011;50072;50.678;13.938;2023-03-14T04:43:42;21.45;;;10.48;;
63902;SDS011;50072;50.678;13.938;2023-03-14T04:46:09;26.52;;;10.18;;
63902;SDS011;50072;50.678;13.938;2023-03-14T04:48:35;32.33;;;13.82;;
63902;SDS011;50072;50.678;13.938;2023-03-14T04:51:10;22.42;;;10.32;;
63902;SDS011;50072;50.678;13.938;2023-03-14T04:53:36;25.77;;;11.88;;
63902;SDS011;50072;50.678;13.938;2023-03-14T04:56:05;26.40;;;12.73;;
63902;SDS011;50072;50.678;13.938;2023-03-14T04:58:42;29.30;;;13.75;;
63902;SDS011;50072;50.678;13.938;2023-03-14T05:01:09;27.27;;;12.57;;
63902;SDS011;50072;50.678;13.938;2023-03-14T05:03:41;26.88;;;11.32;;
63902;SDS011;50072;50.678;13.938;2023-03-14T05:06:07;27.92;;;8.88;;
63902;SDS011;50072;50.678;13.938;2023-03-14T05:08:33;25.98;;;11.45;;
63902;SDS011;50072;50.678;13.938;2023-03-14T05:10:59;22.85;;;9.68;;
63902;SDS011;50072;50.678;13.938;2023-03-14T05:13:25;19.08;;;8.23;;
63902;SDS011;50072;50.678;13.938;2023-03-14T05:15:50;18.83;;;8.55;;
63902;SDS011;50072;50.678;13.938;2023-03-14T05:18:17;19.55;;;9.07;;
63902;SDS011;50072;50.678;13.938;2023-03-14T05:20:44;21.30;;;10.73;;
63902;SDS011;50072;50.678;13.938;2023-03-14T05:23:10;17.77;;;9.88;;
63902;SDS011;50072;50.678;13.938;2023-03-14T05:25:36;15.43;;;8.05;;
63902;SDS011;50072;50.678;13.938;2023-03-14T05:28:02;16.60;;;8.07;;
63902;SDS011;50072;50.678;13.938;2023-03-14T05:30:28;16.50;;;8.45;;
63902;SDS011;50072;50.678;13.938;2023-03-14T05:32:56;36.80;;;13.80;;
63902;SDS011;50072;50.678;13.938;2023-03-14T05:35:22;31.58;;;13.63;;
63902;SDS011;50072;50.678;13.938;2023-03-14T05:37:48;20.73;;;11.00;;
63902;SDS011;50072;50.678;13.938;2023-03-14T05:40:15;20.17;;;10.65;;
63902;SDS011;50072;50.678;13.938;2023-03-14T05:42:41;25.13;;;11.35;;
63902;SDS011;50072;50.678;13.938;2023-03-14T05:45:08;17.83;;;9.80;;
63902;SDS011;50072;50.678;13.938;2023-03-14T05:47:34;19.05;;;9.52;;
63902;SDS011;50072;50.678;13.938;2023-03-14T05:50:02;22.02;;;11.45;;
63902;SDS011;50072;50.678;13.938;2023-03-14T05:52:28;25.40;;;13.27;;
63902;SDS011;50072;50.678;13.938;2023-03-14T05:54:54;24.15;;;12.23;;
63902;SDS011;50072;50.678;13.938;2023-03-14T05:57:20;24.40;;;12.50;;
63902;SDS011;50072;50.678;13.938;2023-03-14T05:59:47;28.65;;;13.35;;
63902;SDS011;50072;50.678;13.938;2023-03-14T06:02:13;33.55;;;15.75;;
63902;SDS011;50072;50.678;13.938;2023-03-14T06:04:39;27.83;;;12.82;;
63902;SDS011;50072;50.678;13.938;2023-03-14T06:07:05;25.10;;;10.75;;
63902;SDS011;50072;50.678;13.938;2023-03-14T06:09:32;20.85;;;9.65;;
63902;SDS011;50072;50.678;13.938;2023-03-14T06:11:59;21.60;;;10.68;;
63902;SDS011;50072;50.678;13.938;2023-03-14T06:14:25;25.80;;;11.43;;
63902;SDS011;50072;50.678;13.938;2023-03-14T06:16:51;25.75;;;11.07;;
63902;SDS011;50072;50.678;13.938;2023-03-14T06:19:19;23.55;;;11.48;;
63902;SDS011;50072;50.678;13.938;2023-03-14T06:21:46;27.27;;;12.48;;
63902;SDS011;50072;50.678;13.938;2023-03-14T06:24:12;26.35;;;12.02;;
63902;SDS011;50072;50.678;13.938;2023-03-14T06:26:39;28.98;;;12.00;;
63902;SDS011;50072;50.678;13.938;2023-03-14T06:29:07;29.98;;;14.27;;
63902;SDS011;50072;50.678;13.938;2023-03-14T06:31:34;28.02;;;12.73;;
63902;SDS011;50072;50.678;13.938;2023-03-14T06:34:01;19.20;;;9.63;;
63902;SDS011;50072;50.678;13.938;2023-03-14T06:36:26;20.85;;;10.00;;
63902;SDS011;50072;50.678;13.938;2023-03-14T06:38:53;23.48;;;9.82;;
63902;SDS011;50072;50.678;13.938;2023-03-14T06:41:20;21.00;;;10.85;;
63902;SDS011;50072;50.678;13.938;2023-03-14T06:43:49;24.85;;;11.05;;
63902;SDS011;50072;50.678;13.938;2023-03-14T06:46:15;19.33;;;10.57;;
63902;SDS011;50072;50.678;13.938;2023-03-14T06:48:41;28.38;;;12.68;;
63902;SDS011;50072;50.678;13.938;2023-03-14T06:51:07;21.52;;;11.52;;
63902;SDS011;50072;50.678;13.938;2023-03-14T06:53:35;20.52;;;10.40;;
63902;SDS011;50072;50.678;13.938;2023-03-14T06:56:01;20.13;;;10.35;;
63902;SDS011;50072;50.678;13.938;2023-03-14T06:58:27;19.15;;;10.52;;
63902;SDS011;50072;50.678;13.938;2023-03-14T07:00:53;19.17;;;10.55;;
63902;SDS011;50072;50.678;13.938;2023-03-14T07:03:21;17.77;;;9.65;;
63902;SDS011;50072;50.678;13.938;2023-03-14T07:05:49;16.27;;;8.60;;
63902;SDS011;50072;50.678;13.938;2023-03-14T07:08:21;18.13;;;7.97;;
63902;SDS011;50072;50.678;13.938;2023-03-14T07:10:48;13.95;;;7.80;;
63902;SDS011;50072;50.678;13.938;2023-03-14T07:13:14;15.25;;;7.50;;
63902;SDS011;50072;50.678;13.938;2023-03-14T07:15:41;14.15;;;7.55;;
63902;SDS011;50072;50.678;13.938;2023-03-14T07:18:07;15.85;;;8.00;;
63902;SDS011;50072;50.678;13.938;2023-03-14T07:20:35;21.25;;;9.05;;
63902;SDS011;50072;50.678;13.938;2023-03-14T07:23:02;13.43;;;7.90;;
63902;SDS011;50072;50.678;13.938;2023-03-14T07:25:30;15.35;;;8.23;;
63902;SDS011;50072;50.678;13.938;2023-03-14T07:27:56;15.63;;;7.97;;
63902;SDS011;50072;50.678;13.938;2023-03-14T07:30:26;17.88;;;10.05;;
63902;SDS011;50072;50.678;13.938;2023-03-14T07:32:52;18.48;;;11.00;;
63902;SDS011;50072;50.678;13.938;2023-03-14T07:35:19;19.52;;;11.32;;
63902;SDS011;50072;50.678;13.938;2023-03-14T07:37:46;19.58;;;10.18;;
63902;SDS011;50072;50.678;13.938;2023-03-14T07:40:12;13.75;;;8.73;;
63902;SDS011;50072;50.678;13.938;2023-03-14T07:42:41;18.02;;;8.85;;
63902;SDS011;50072;50.678;13.938;2023-03-14T07:45:13;14.15;;;8.23;;
63902;SDS011;50072;50.678;13.938;2023-03-14T07:47:41;12.93;;;7.68;;
63902;SDS011;50072;50.678;13.938;2023-03-14T07:50:12;11.52;;;6.10;;
63902;SDS011;50072;50.678;13.938;2023-03-14T07:52:39;18.90;;;8.50;;
63902;SDS011;50072;50.678;13.938;2023-03-14T07:55:05;9.88;;;5.72;;
63902;SDS011;50072;50.678;13.938;2023-03-14T07:57:31;11.63;;;5.85;;
63902;SDS011;50072;50.678;13.938;2023-03-14T07:59:59;15.32;;;6.28;;
63902;SDS011;50072;50.678;13.938;2023-03-14T08:02:26;12.65;;;6.60;;
63902;SDS011;50072;50.678;13.938;2023-03-14T08:04:52;10.40;;;5.80;;
63902;SDS011;50072;50.678;13.938;2023-03-14T08:09:51;8.68;;;5.13;;
63902;SDS011;50072;50.678;13.938;2023-03-14T08:12:16;8.45;;;4.95;;
63902;SDS011;50072;50.678;13.938;2023-03-14T08:14:42;10.93;;;5.40;;
63902;SDS011;50072;50.678;13.938;2023-03-14T08:17:09;11.85;;;6.40;;
63902;SDS011;50072;50.678;13.938;2023-03-14T08:19:35;10.35;;;5.13;;
63902;SDS011;50072;50.678;13.938;2023-03-14T08:22:01;12.23;;;5.88;;
63902;SDS011;50072;50.678;13.938;2023-03-14T08:24:27;13.40;;;6.22;;
63902;SDS011;50072;50.678;13.938;2023-03-14T08:26:52;13.38;;;6.30;;
63902;SDS011;50072;50.678;13.938;2023-03-14T08:29:21;13.70;;;6.82;;
63902;SDS011;50072;50.678;13.938;2023-03-14T08:31:47;12.52;;;7.25;;
63902;SDS011;50072;50.678;13.938;2023-03-14T08:34:14;14.63;;;7.68;;
63902;SDS011;50072;50.678;13.938;2023-03-14T08:36:42;13.57;;;6.20;;
63902;SDS011;50072;50.678;13.938;2023-03-14T08:39:12;13.05;;;6.35;;
63902;SDS011;50072;50.678;13.938;2023-03-14T08:44:10;10.98;;;5.97;;
63902;SDS011;50072;50.678;13.938;2023-03-14T08:49:12;13.88;;;6.00;;
63902;SDS011;50072;50.678;13.938;2023-03-14T08:51:39;9.73;;;5.88;;
63902;SDS011;50072;50.678;13.938;2023-03-14T08:54:12;13.55;;;5.38;;
63902;SDS011;50072;50.678;13.938;2023-03-14T08:56:38;12.07;;;4.97;;
63902;SDS011;50072;50.678;13.938;2023-03-14T08:59:06;12.88;;;5.00;;
63902;SDS011;50072;50.678;13.938;2023-03-14T09:01:34;12.90;;;5.10;;
63902;SDS011;50072;50.678;13.938;2023-03-14T09:04:02;11.40;;;5.05;;
63902;SDS011;50072;50.678;13.938;2023-03-14T09:06:29;14.57;;;6.05;;
63902;SDS011;50072;50.678;13.938;2023-03-14T09:08:56;18.25;;;6.10;;
63902;SDS011;50072;50.678;13.938;2023-03-14T09:11:23;13.30;;;5.50;;
63902;SDS011;50072;50.678;13.938;2023-03-14T09:13:49;16.25;;;7.03;;
63902;SDS011;50072;50.678;13.938;2023-03-14T09:16:16;16.77;;;7.78;;
63902;SDS011;50072;50.678;13.938;2023-03-14T09:18:42;15.50;;;8.35;;
63902;SDS011;50072;50.678;13.938;2023-03-14T09:21:08;14.27;;;8.10;;
63902;SDS011;50072;50.678;13.938;2023-03-14T09:23:35;15.38;;;7.72;;
63902;SDS011;50072;50.678;13.938;2023-03-14T09:26:03;14.25;;;7.20;;
63902;SDS011;50072;50.678;13.938;2023-03-14T09:28:31;15.07;;;8.00;;
63902;SDS011;50072;50.678;13.938;2023-03-14T09:30:57;12.55;;;7.53;;
63902;SDS011;50072;50.678;13.938;2023-03-14T09:33:24;11.93;;;6.88;;
63902;SDS011;50072;50.678;13.938;2023-03-14T09:35:50;17.05;;;7.97;;
63902;SDS011;50072;50.678;13.938;2023-03-14T09:38:16;13.07;;;5.78;;
63902;SDS011;50072;50.678;13.938;2023-03-14T09:40:44;7.65;;;3.13;;
63902;SDS011;50072;50.678;13.938;2023-03-14T09:43:14;3.88;;;2.03;;
63902;SDS011;50072;50.678;13.938;2023-03-14T09:45:42;5.88;;;2.55;;
63902;SDS011;50072;50.678;13.938;2023-03-14T09:48:32;4.30;;;1.27;;
63902;SDS011;50072;50.678;13.938;2023-03-14T09:51:16;4.25;;;1.50;;
63902;SDS011;50072;50.678;13.938;2023-03-14T09:53:58;4.85;;;1.33;;
63902;SDS011;50072;50.678;13.938;2023-03-14T09:56:26;2.63;;;1.10;;
63902;SDS011;50072;50.678;13.938;2023-03-14T09:59:12;5.65;;;2.05;;
63902;SDS011;50072;50.678;13.938;2023-03-14T10:04:14;2.78;;;1.20;;
63902;SDS011;50072;50.678;13.938;2023-03-14T10:07:01;3.00;;;1.00;;
63902;SDS011;50072;50.678;13.938;2023-03-14T10:09:27;1.40;;;0.80;;
63902;SDS011;50072;50.678;13.938;2023-03-14T10:15:15;4.55;;;1.35;;
63902;SDS011;50072;50.678;13.938;2023-03-14T10:18:01;3.65;;;1.20;;
63902;SDS011;50072;50.678;13.938;2023-03-14T10:25:43;3.90;;;1.08;;
63902;SDS011;50072;50.678;13.938;2023-03-14T10:28:34;2.42;;;1.00;;
63902;SDS011;50072;50.678;13.938;2023-03-14T10:31:07;2.72;;;1.00;;
63902;SDS011;50072;50.678;13.938;2023-03-14T10:36:27;4.20;;;1.15;;
63902;SDS011;50072;50.678;13.938;2023-03-14T10:39:21;0.93;;;0.60;;
63902;SDS011;50072;50.678;13.938;2023-03-14T10:41:50;3.03;;;1.25;;
63902;SDS011;50072;50.678;13.938;2023-03-14T10:44:20;3.50;;;0.75;;
63902;SDS011;50072;50.678;13.938;2023-03-14T10:47:03;1.83;;;0.70;;
63902;SDS011;50072;50.678;13.938;2023-03-14T10:49:34;2.72;;;1.17;;
63902;SDS011;50072;50.678;13.938;2023-03-14T10:54:55;7.40;;;2.28;;
63902;SDS011;50072;50.678;13.938;2023-03-14T10:57:25;2.72;;;1.00;;
63902;SDS011;50072;50.678;13.938;2023-03-14T10:59:52;4.20;;;1.75;;
63902;SDS011;50072;50.678;13.938;2023-03-14T11:07:38;2.85;;;0.90;;
63902;SDS011;50072;50.678;13.938;2023-03-14T11:10:18;2.47;;;0.88;;
63902;SDS011;50072;50.678;13.938;2023-03-14T11:21:48;4.63;;;1.38;;
63902;SDS011;50072;50.678;13.938;2023-03-14T11:27:18;2.17;;;1.42;;
63902;SDS011;50072;50.678;13.938;2023-03-14T11:38:38;3.13;;;0.82;;
63902;SDS011;50072;50.678;13.938;2023-03-14T11:43:58;1.13;;;0.68;;
63902;SDS011;50072;50.678;13.938;2023-03-14T11:49:49;2.17;;;0.70;;
63902;SDS011;50072;50.678;13.938;2023-03-14T11:52:20;3.10;;;0.65;;
63902;SDS011;50072;50.678;13.938;2023-03-14T11:55:37;1.25;;;0.70;;
63902;SDS011;50072;50.678;13.938;2023-03-14T12:09:03;1.23;;;0.60;;
63902;SDS011;50072;50.678;13.938;2023-03-14T12:11:39;2.40;;;0.60;;
63902;SDS011;50072;50.678;13.938;2023-03-14T12:14:21;3.22;;;0.80;;
63902;SDS011;50072;50.678;13.938;2023-03-14T12:16:54;2.13;;;0.85;;
63902;SDS011;50072;50.678;13.938;2023-03-14T12:22:17;4.70;;;1.10;;
63902;SDS011;50072;50.678;13.938;2023-03-14T12:25:00;4.88;;;1.55;;
63902;SDS011;50072;50.678;13.938;2023-03-14T12:30:18;2.97;;;0.63;;
63902;SDS011;50072;50.678;13.938;2023-03-14T12:35:38;1.95;;;0.70;;
63902;SDS011;50072;50.678;13.938;2023-03-14T12:43:31;3.25;;;0.80;;
63902;SDS011;50072;50.678;13.938;2023-03-14T12:48:50;3.08;;;1.50;;
63902;SDS011;50072;50.678;13.938;2023-03-14T12:51:47;3.85;;;0.70;;
63902;SDS011;50072;50.678;13.938;2023-03-14T12:59:29;2.55;;;1.40;;
63902;SDS011;50072;50.678;13.938;2023-03-14T13:07:00;1.38;;;0.60;;
63902;SDS011;50072;50.678;13.938;2023-03-14T13:12:03;1.98;;;0.82;;
63902;SDS011;50072;50.678;13.938;2023-03-14T13:14:35;2.05;;;0.77;;
63902;SDS011;50072;50.678;13.938;2023-03-14T13:17:10;5.03;;;2.03;;
63902;SDS011;50072;50.678;13.938;2023-03-14T13:19:37;2.00;;;0.80;;
63902;SDS011;50072;50.678;13.938;2023-03-14T13:22:47;3.22;;;1.00;;
63902;SDS011;50072;50.678;13.938;2023-03-14T13:25:00;1.42;;;0.85;;
63902;SDS011;50072;50.678;13.938;2023-03-14T13:27:30;0.52;;;0.40;;
63902;SDS011;50072;50.678;13.938;2023-03-14T13:29:58;2.40;;;0.88;;
63902;SDS011;50072;50.678;13.938;2023-03-14T13:32:28;2.10;;;0.70;;
63902;SDS011;50072;50.678;13.938;2023-03-14T13:34:57;13.93;;;6.40;;
63902;SDS011;50072;50.678;13.938;2023-03-14T13:37:25;2.80;;;0.63;;
63902;SDS011;50072;50.678;13.938;2023-03-14T13:39:52;1.92;;;0.93;;
63902;SDS011;50072;50.678;13.938;2023-03-14T13:42:21;3.00;;;1.10;;
63902;SDS011;50072;50.678;13.938;2023-03-14T13:44:52;1.77;;;1.00;;
63902;SDS011;50072;50.678;13.938;2023-03-14T13:47:22;3.83;;;1.65;;
63902;SDS011;50072;50.678;13.938;2023-03-14T13:49:50;3.40;;;1.58;;
63902;SDS011;50072;50.678;13.938;2023-03-14T13:52:30;5.60;;;1.30;;
63902;SDS011;50072;50.678;13.938;2023-03-14T13:55:00;3.58;;;1.40;;
63902;SDS011;50072;50.678;13.938;2023-03-14T13:57:50;2.83;;;1.40;;
63902;SDS011;50072;50.678;13.938;2023-03-14T14:00:25;6.45;;;1.75;;
63902;SDS011;50072;50.678;13.938;2023-03-14T14:02:53;9.02;;;2.80;;
63902;SDS011;50072;50.678;13.938;2023-03-14T14:05:21;5.97;;;2.75;;
63902;SDS011;50072;50.678;13.938;2023-03-14T14:07:49;5.45;;;1.77;;
63902;SDS011;50072;50.678;13.938;2023-03-14T14:10:17;4.47;;;1.80;;
63902;SDS011;50072;50.678;13.938;2023-03-14T14:12:55;6.32;;;2.60;;
63902;SDS011;50072;50.678;13.938;2023-03-14T14:15:29;7.03;;;2.63;;
63902;SDS011;50072;50.678;13.938;2023-03-14T14:18:04;5.63;;;2.45;;
63902;SDS011;50072;50.678;13.938;2023-03-14T14:20:40;5.65;;;2.58;;
63902;SDS011;50072;50.678;13.938;2023-03-14T14:23:10;7.97;;;3.65;;
63902;SDS011;50072;50.678;13.938;2023-03-14T14:25:39;5.93;;;1.92;;
63902;SDS011;50072;50.678;13.938;2023-03-14T14:28:48;3.55;;;1.75;;
63902;SDS011;50072;50.678;13.938;2023-03-14T14:36:26;3.60;;;1.50;;
63902;SDS011;50072;50.678;13.938;2023-03-14T14:39:28;4.47;;;1.80;;
63902;SDS011;50072;50.678;13.938;2023-03-14T14:41:52;11.23;;;5.25;;
63902;SDS011;50072;50.678;13.938;2023-03-14T14:44:38;11.63;;;5.78;;
63902;SDS011;50072;50.678;13.938;2023-03-14T14:47:04;6.22;;;3.00;;
63902;SDS011;50072;50.678;13.938;2023-03-14T14:49:32;7.20;;;2.03;;
63902;SDS011;50072;50.678;13.938;2023-03-14T14:55:00;7.30;;;2.30;;
63902;SDS011;50072;50.678;13.938;2023-03-14T14:57:30;3.22;;;1.52;;
63902;SDS011;50072;50.678;13.938;2023-03-14T15:00:02;2.70;;;1.00;;
63902;SDS011;50072;50.678;13.938;2023-03-14T15:05:13;2.28;;;1.30;;
63902;SDS011;50072;50.678;13.938;2023-03-14T15:07:41;1.57;;;1.00;;
63902;SDS011;50072;50.678;13.938;2023-03-14T15:10:11;7.63;;;2.33;;
63902;SDS011;50072;50.678;13.938;2023-03-14T15:12:39;3.65;;;1.35;;
63902;SDS011;50072;50.678;13.938;2023-03-14T15:15:06;4.43;;;1.58;;
63902;SDS011;50072;50.678;13.938;2023-03-14T15:17:34;1.17;;;0.88;;
63902;SDS011;50072;50.678;13.938;2023-03-14T15:20:02;4.85;;;2.72;;
63902;SDS011;50072;50.678;13.938;2023-03-14T15:22:30;7.95;;;4.05;;
63902;SDS011;50072;50.678;13.938;2023-03-14T15:24:56;7.88;;;3.60;;
63902;SDS011;50072;50.678;13.938;2023-03-14T15:27:22;7.80;;;2.80;;
63902;SDS011;50072;50.678;13.938;2023-03-14T15:29:48;4.18;;;1.20;;
63902;SDS011;50072;50.678;13.938;2023-03-14T15:32:15;3.13;;;1.45;;
63902;SDS011;50072;50.678;13.938;2023-03-14T15:34:43;2.70;;;1.08;;
63902;SDS011;50072;50.678;13.938;2023-03-14T15:37:13;2.47;;;1.00;;
63902;SDS011;50072;50.678;13.938;2023-03-14T15:39:42;4.05;;;1.60;;
63902;SDS011;50072;50.678;13.938;2023-03-14T15:42:08;1.20;;;0.65;;
63902;SDS011;50072;50.678;13.938;2023-03-14T15:44:35;1.42;;;0.70;;
63902;SDS011;50072;50.678;13.938;2023-03-14T15:47:01;3.92;;;0.90;;
63902;SDS011;50072;50.678;13.938;2023-03-14T15:49:28;2.72;;;1.20;;
63902;SDS011;50072;50.678;13.938;2023-03-14T15:51:54;2.80;;;1.02;;
63902;SDS011;50072;50.678;13.938;2023-03-14T15:54:22;3.58;;;1.20;;
63902;SDS011;50072;50.678;13.938;2023-03-14T15:56:47;3.13;;;1.00;;
63902;SDS011;50072;50.678;13.938;2023-03-14T15:59:13;3.33;;;1.00;;
63902;SDS011;50072;50.678;13.938;2023-03-14T16:01:39;2.47;;;1.05;;
63902;SDS011;50072;50.678;13.938;2023-03-14T16:04:05;3.60;;;1.30;;
63902;SDS011;50072;50.678;13.938;2023-03-14T16:06:30;3.17;;;0.85;;
63902;SDS011;50072;50.678;13.938;2023-03-14T16:08:56;4.55;;;1.17;;
63902;SDS011;50072;50.678;13.938;2023-03-14T16:11:24;2.72;;;0.80;;
63902;SDS011;50072;50.678;13.938;2023-03-14T16:13:50;3.92;;;1.00;;
63902;SDS011;50072;50.678;13.938;2023-03-14T16:16:16;2.97;;;0.85;;
63902;SDS011;50072;50.678;13.938;2023-03-14T16:18:42;2.65;;;1.10;;
63902;SDS011;50072;50.678;13.938;2023-03-14T16:21:15;1.75;;;0.65;;
63902;SDS011;50072;50.678;13.938;2023-03-14T16:23:50;2.92;;;0.95;;
63902;SDS011;50072;50.678;13.938;2023-03-14T16:26:25;11.25;;;4.70;;
63902;SDS011;50072;50.678;13.938;2023-03-14T16:29:00;3.60;;;1.35;;
63902;SDS011;50072;50.678;13.938;2023-03-14T16:31:32;3.85;;;1.20;;
63902;SDS011;50072;50.678;13.938;2023-03-14T16:34:12;4.55;;;1.13;;
63902;SDS011;50072;50.678;13.938;2023-03-14T16:36:39;2.45;;;1.00;;
63902;SDS011;50072;50.678;13.938;2023-03-14T16:39:12;4.68;;;1.33;;
63902;SDS011;50072;50.678;13.938;2023-03-14T16:44:08;2.58;;;1.25;;
63902;SDS011;50072;50.678;13.938;2023-03-14T16:46:35;2.95;;;1.00;;
63902;SDS011;50072;50.678;13.938;2023-03-14T16:49:07;1.60;;;0.90;;
63902;SDS011;50072;50.678;13.938;2023-03-14T16:51:33;3.15;;;1.33;;
63902;SDS011;50072;50.678;13.938;2023-03-14T16:54:01;2.70;;;1.10;;
63902;SDS011;50072;50.678;13.938;2023-03-14T16:56:32;3.75;;;0.95;;
63902;SDS011;50072;50.678;13.938;2023-03-14T16:59:05;1.27;;;0.60;;
63902;SDS011;50072;50.678;13.938;2023-03-14T17:01:33;4.47;;;0.95;;
63902;SDS011;50072;50.678;13.938;2023-03-14T17:04:09;2.33;;;0.80;;
63902;SDS011;50072;50.678;13.938;2023-03-14T17:06:41;4.40;;;1.35;;
63902;SDS011;50072;50.678;13.938;2023-03-14T17:09:09;3.05;;;0.98;;
63902;SDS011;50072;50.678;13.938;2023-03-14T17:11:42;4.65;;;2.00;;
63902;SDS011;50072;50.678;13.938;2023-03-14T17:14:11;4.10;;;1.40;;